ilmateenistus.ee keskkonnaagentuur.ee
EETN Tallinna lennuväli
FTEO31 EETN 171700
TAF EETN 171705Z 1718/1818 15007KT 9999 SCT040 PROB40 TEMPO 1808/1812
    SCT030CB=

METAR EETN 172220Z 14007KT CAVOK 17/12 Q1013 =
Tallinna lennuväli
EEKA Kärdla lennuväli
METAR EEKA 172150Z NIL=
Kärdla lennuväli
EEKE Kuressaare lennuväli
SPECI EEKE 172223Z AUTO 20001KT 1200NDV R17/1700D R35/P2000N FG NSC 14/14 Q1012=
Kuressaare lennuväli
EEPU Pärnu lennuväli
METAR EEPU 172150Z NIL=
Pärnu lennuväli
EETU Tartu lennuväli
METAR EETU 172220Z AUTO 12003KT 9999 NCD 12/10 Q1015=
Tartu lennuväli
EEEI Ämari lennuväli
METAR EEEI 172220Z AUTO 12003KT CAVOK 16/13 Q1013=
Ämari lennuväli

Uudised

Lisainfo 24h: 666 0932 aviamet@envir.ee